sensor_id;sensor_type;location;lat;lon;timestamp;temperature;humidity
11583;DHT22;34299;50.820;4.548;2024-02-21T00:01:30;8.80;99.90
11583;DHT22;34299;50.820;4.548;2024-02-21T00:03:57;8.70;99.90
11583;DHT22;34299;50.820;4.548;2024-02-21T00:06:24;8.90;99.90
11583;DHT22;34299;50.820;4.548;2024-02-21T00:08:51;8.80;99.90
11583;DHT22;34299;50.820;4.548;2024-02-21T00:11:18;8.80;99.90
11583;DHT22;34299;50.820;4.548;2024-02-21T00:13:45;8.80;99.90
11583;DHT22;34299;50.820;4.548;2024-02-21T00:16:13;8.80;99.90
11583;DHT22;34299;50.820;4.548;2024-02-21T00:18:41;8.80;99.90
11583;DHT22;34299;50.820;4.548;2024-02-21T00:21:08;8.90;99.90
11583;DHT22;34299;50.820;4.548;2024-02-21T00:23:35;8.80;99.90
11583;DHT22;34299;50.820;4.548;2024-02-21T00:26:02;8.70;99.90
11583;DHT22;34299;50.820;4.548;2024-02-21T00:28:29;8.80;99.90
11583;DHT22;34299;50.820;4.548;2024-02-21T00:30:56;8.70;99.90
11583;DHT22;34299;50.820;4.548;2024-02-21T00:33:24;8.70;99.90
11583;DHT22;34299;50.820;4.548;2024-02-21T00:35:51;8.80;99.90
11583;DHT22;34299;50.820;4.548;2024-02-21T00:38:18;8.80;99.90
11583;DHT22;34299;50.820;4.548;2024-02-21T00:40:45;8.70;99.90
11583;DHT22;34299;50.820;4.548;2024-02-21T00:43:12;8.60;99.90
11583;DHT22;34299;50.820;4.548;2024-02-21T00:45:39;8.70;99.90
11583;DHT22;34299;50.820;4.548;2024-02-21T00:48:06;8.60;99.90
11583;DHT22;34299;50.820;4.548;2024-02-21T00:50:34;8.60;99.90
11583;DHT22;34299;50.820;4.548;2024-02-21T00:53:03;8.80;99.90
11583;DHT22;34299;50.820;4.548;2024-02-21T00:55:30;8.60;99.90
11583;DHT22;34299;50.820;4.548;2024-02-21T00:57:57;8.60;99.90
11583;DHT22;34299;50.820;4.548;2024-02-21T01:00:24;8.60;99.90
11583;DHT22;34299;50.820;4.548;2024-02-21T01:02:50;8.70;99.90
11583;DHT22;34299;50.820;4.548;2024-02-21T01:05:17;8.70;99.90
11583;DHT22;34299;50.820;4.548;2024-02-21T01:07:46;8.50;99.90
11583;DHT22;34299;50.820;4.548;2024-02-21T01:10:15;8.50;99.90
11583;DHT22;34299;50.820;4.548;2024-02-21T01:12:42;8.50;99.90
11583;DHT22;34299;50.820;4.548;2024-02-21T01:15:09;8.60;99.90
11583;DHT22;34299;50.820;4.548;2024-02-21T01:17:37;8.60;99.90
11583;DHT22;34299;50.820;4.548;2024-02-21T01:20:07;8.60;99.90
11583;DHT22;34299;50.820;4.548;2024-02-21T01:22:34;8.60;99.90
11583;DHT22;34299;50.820;4.548;2024-02-21T01:25:02;8.60;99.90
11583;DHT22;34299;50.820;4.548;2024-02-21T01:27:29;8.60;99.90
11583;DHT22;34299;50.820;4.548;2024-02-21T01:29:56;8.50;99.90
11583;DHT22;34299;50.820;4.548;2024-02-21T01:32:23;8.60;99.90
11583;DHT22;34299;50.820;4.548;2024-02-21T01:34:50;8.50;99.90
11583;DHT22;34299;50.820;4.548;2024-02-21T01:37:17;8.50;99.90
11583;DHT22;34299;50.820;4.548;2024-02-21T01:39:44;8.60;99.90
11583;DHT22;34299;50.820;4.548;2024-02-21T01:42:12;8.50;99.90
11583;DHT22;34299;50.820;4.548;2024-02-21T01:44:39;8.40;99.90
11583;DHT22;34299;50.820;4.548;2024-02-21T01:47:07;8.50;99.90
11583;DHT22;34299;50.820;4.548;2024-02-21T01:49:34;8.50;99.90
11583;DHT22;34299;50.820;4.548;2024-02-21T01:52:02;8.60;99.90
11583;DHT22;34299;50.820;4.548;2024-02-21T01:54:29;8.60;99.90
11583;DHT22;34299;50.820;4.548;2024-02-21T01:56:56;8.60;99.90
11583;DHT22;34299;50.820;4.548;2024-02-21T01:59:24;8.50;99.90
11583;DHT22;34299;50.820;4.548;2024-02-21T02:01:52;8.50;99.90
11583;DHT22;34299;50.820;4.548;2024-02-21T02:04:20;8.50;99.90
11583;DHT22;34299;50.820;4.548;2024-02-21T02:06:47;8.40;99.90
11583;DHT22;34299;50.820;4.548;2024-02-21T02:09:14;8.50;99.90
11583;DHT22;34299;50.820;4.548;2024-02-21T02:11:42;8.50;99.90
11583;DHT22;34299;50.820;4.548;2024-02-21T02:14:09;8.40;99.90
11583;DHT22;34299;50.820;4.548;2024-02-21T02:16:38;8.60;99.90
11583;DHT22;34299;50.820;4.548;2024-02-21T02:19:07;8.40;99.90
11583;DHT22;34299;50.820;4.548;2024-02-21T02:21:40;8.40;99.90
11583;DHT22;34299;50.820;4.548;2024-02-21T02:24:11;8.40;99.90
11583;DHT22;34299;50.820;4.548;2024-02-21T02:26:39;8.50;99.90
11583;DHT22;34299;50.820;4.548;2024-02-21T02:29:06;8.60;99.90
11583;DHT22;34299;50.820;4.548;2024-02-21T02:31:33;8.60;99.90
11583;DHT22;34299;50.820;4.548;2024-02-21T02:34:00;8.50;99.90
11583;DHT22;34299;50.820;4.548;2024-02-21T02:36:27;8.50;99.90
11583;DHT22;34299;50.820;4.548;2024-02-21T02:38:54;8.50;99.90
11583;DHT22;34299;50.820;4.548;2024-02-21T02:41:22;8.50;99.90
11583;DHT22;34299;50.820;4.548;2024-02-21T02:43:50;8.40;99.90
11583;DHT22;34299;50.820;4.548;2024-02-21T02:46:17;8.50;99.90
11583;DHT22;34299;50.820;4.548;2024-02-21T02:48:44;8.50;99.90
11583;DHT22;34299;50.820;4.548;2024-02-21T02:51:11;8.60;99.90
11583;DHT22;34299;50.820;4.548;2024-02-21T02:53:38;8.60;99.90
11583;DHT22;34299;50.820;4.548;2024-02-21T02:56:05;8.60;99.90
11583;DHT22;34299;50.820;4.548;2024-02-21T02:58:34;8.60;99.90
11583;DHT22;34299;50.820;4.548;2024-02-21T03:01:01;8.80;99.90
11583;DHT22;34299;50.820;4.548;2024-02-21T03:03:29;8.70;99.90
11583;DHT22;34299;50.820;4.548;2024-02-21T03:05:56;8.60;99.90
11583;DHT22;34299;50.820;4.548;2024-02-21T03:08:23;8.60;99.90
11583;DHT22;34299;50.820;4.548;2024-02-21T03:10:50;8.50;99.90
11583;DHT22;34299;50.820;4.548;2024-02-21T03:13:17;8.60;99.90
11583;DHT22;34299;50.820;4.548;2024-02-21T03:15:46;8.50;99.90
11583;DHT22;34299;50.820;4.548;2024-02-21T03:18:12;8.60;99.90
11583;DHT22;34299;50.820;4.548;2024-02-21T03:20:39;8.50;99.90
11583;DHT22;34299;50.820;4.548;2024-02-21T03:23:06;8.50;99.90
11583;DHT22;34299;50.820;4.548;2024-02-21T03:25:33;8.50;99.90
11583;DHT22;34299;50.820;4.548;2024-02-21T03:28:00;8.60;99.90
11583;DHT22;34299;50.820;4.548;2024-02-21T03:30:27;8.40;99.90
11583;DHT22;34299;50.820;4.548;2024-02-21T03:32:55;8.50;99.90
11583;DHT22;34299;50.820;4.548;2024-02-21T03:35:22;8.40;99.90
11583;DHT22;34299;50.820;4.548;2024-02-21T03:37:52;8.40;99.90
11583;DHT22;34299;50.820;4.548;2024-02-21T03:40:19;8.20;99.90
11583;DHT22;34299;50.820;4.548;2024-02-21T03:42:46;8.40;99.90
11583;DHT22;34299;50.820;4.548;2024-02-21T03:45:13;8.30;99.90
11583;DHT22;34299;50.820;4.548;2024-02-21T03:47:39;8.40;99.90
11583;DHT22;34299;50.820;4.548;2024-02-21T03:50:08;8.30;99.90
11583;DHT22;34299;50.820;4.548;2024-02-21T03:52:35;8.40;99.90
11583;DHT22;34299;50.820;4.548;2024-02-21T03:55:02;8.50;99.90
11583;DHT22;34299;50.820;4.548;2024-02-21T03:57:29;8.50;99.90
11583;DHT22;34299;50.820;4.548;2024-02-21T03:59:56;8.50;99.90
11583;DHT22;34299;50.820;4.548;2024-02-21T04:02:23;8.50;99.90
11583;DHT22;34299;50.820;4.548;2024-02-21T04:04:50;8.40;99.90
11583;DHT22;34299;50.820;4.548;2024-02-21T04:07:18;8.40;99.90
11583;DHT22;34299;50.820;4.548;2024-02-21T04:09:45;8.50;99.90
11583;DHT22;34299;50.820;4.548;2024-02-21T04:12:12;8.40;99.90
11583;DHT22;34299;50.820;4.548;2024-02-21T04:14:39;8.40;99.90
11583;DHT22;34299;50.820;4.548;2024-02-21T04:17:06;8.30;99.90
11583;DHT22;34299;50.820;4.548;2024-02-21T04:19:33;8.50;99.90
11583;DHT22;34299;50.820;4.548;2024-02-21T04:22:00;8.40;99.90
11583;DHT22;34299;50.820;4.548;2024-02-21T04:24:28;8.40;99.90
11583;DHT22;34299;50.820;4.548;2024-02-21T04:26:55;8.40;99.90
11583;DHT22;34299;50.820;4.548;2024-02-21T04:29:22;8.40;99.90
11583;DHT22;34299;50.820;4.548;2024-02-21T04:31:49;8.50;99.90
11583;DHT22;34299;50.820;4.548;2024-02-21T04:34:16;8.50;99.90
11583;DHT22;34299;50.820;4.548;2024-02-21T04:36:43;8.50;99.90
11583;DHT22;34299;50.820;4.548;2024-02-21T04:39:10;8.60;99.90
11583;DHT22;34299;50.820;4.548;2024-02-21T04:41:39;8.50;99.90
11583;DHT22;34299;50.820;4.548;2024-02-21T04:44:06;8.50;99.90
11583;DHT22;34299;50.820;4.548;2024-02-21T04:46:33;8.40;99.90
11583;DHT22;34299;50.820;4.548;2024-02-21T04:48:59;8.50;99.90
11583;DHT22;34299;50.820;4.548;2024-02-21T04:51:26;8.30;99.90
11583;DHT22;34299;50.820;4.548;2024-02-21T04:53:53;8.30;99.90
11583;DHT22;34299;50.820;4.548;2024-02-21T04:56:20;8.40;99.90
11583;DHT22;34299;50.820;4.548;2024-02-21T04:58:49;8.40;99.90
11583;DHT22;34299;50.820;4.548;2024-02-21T05:01:16;8.50;99.90
11583;DHT22;34299;50.820;4.548;2024-02-21T05:03:43;8.40;99.90
11583;DHT22;34299;50.820;4.548;2024-02-21T05:06:10;8.50;99.90
11583;DHT22;34299;50.820;4.548;2024-02-21T05:08:37;8.40;99.90
11583;DHT22;34299;50.820;4.548;2024-02-21T05:11:04;8.40;99.90
11583;DHT22;34299;50.820;4.548;2024-02-21T05:13:31;8.40;99.90
11583;DHT22;34299;50.820;4.548;2024-02-21T05:15:59;8.50;99.90
11583;DHT22;34299;50.820;4.548;2024-02-21T05:18:27;8.40;99.90
11583;DHT22;34299;50.820;4.548;2024-02-21T05:20:54;8.20;99.90
11583;DHT22;34299;50.820;4.548;2024-02-21T05:23:21;8.40;99.90
11583;DHT22;34299;50.820;4.548;2024-02-21T05:25:47;8.40;99.90
11583;DHT22;34299;50.820;4.548;2024-02-21T05:28:14;8.40;99.90
11583;DHT22;34299;50.820;4.548;2024-02-21T05:30:41;8.30;99.90
11583;DHT22;34299;50.820;4.548;2024-02-21T05:33:10;8.30;99.90
11583;DHT22;34299;50.820;4.548;2024-02-21T05:35:38;8.30;99.90
11583;DHT22;34299;50.820;4.548;2024-02-21T05:38:05;8.30;99.90
11583;DHT22;34299;50.820;4.548;2024-02-21T05:40:37;8.30;99.90
11583;DHT22;34299;50.820;4.548;2024-02-21T05:43:04;8.40;99.90
11583;DHT22;34299;50.820;4.548;2024-02-21T05:45:31;8.30;99.90
11583;DHT22;34299;50.820;4.548;2024-02-21T05:47:57;8.40;99.90
11583;DHT22;34299;50.820;4.548;2024-02-21T05:50:26;8.40;99.90
11583;DHT22;34299;50.820;4.548;2024-02-21T05:52:54;8.40;99.90
11583;DHT22;34299;50.820;4.548;2024-02-21T05:55:22;8.40;99.90
11583;DHT22;34299;50.820;4.548;2024-02-21T05:57:49;8.50;99.90
11583;DHT22;34299;50.820;4.548;2024-02-21T06:00:16;8.40;99.90
11583;DHT22;34299;50.820;4.548;2024-02-21T06:02:43;8.30;99.90
11583;DHT22;34299;50.820;4.548;2024-02-21T06:05:10;8.40;99.90
11583;DHT22;34299;50.820;4.548;2024-02-21T06:07:39;8.50;99.90
11583;DHT22;34299;50.820;4.548;2024-02-21T06:10:08;8.50;99.90
11583;DHT22;34299;50.820;4.548;2024-02-21T06:12:35;8.50;99.90
11583;DHT22;34299;50.820;4.548;2024-02-21T06:15:02;8.50;99.90
11583;DHT22;34299;50.820;4.548;2024-02-21T06:17:29;8.50;99.90
11583;DHT22;34299;50.820;4.548;2024-02-21T06:19:56;8.50;99.90
11583;DHT22;34299;50.820;4.548;2024-02-21T06:22:23;8.50;99.90
11583;DHT22;34299;50.820;4.548;2024-02-21T06:24:51;8.50;99.90
11583;DHT22;34299;50.820;4.548;2024-02-21T06:27:19;8.70;99.90
11583;DHT22;34299;50.820;4.548;2024-02-21T06:29:46;8.50;99.90
11583;DHT22;34299;50.820;4.548;2024-02-21T06:32:13;8.30;99.90
11583;DHT22;34299;50.820;4.548;2024-02-21T06:34:40;8.40;99.90
11583;DHT22;34299;50.820;4.548;2024-02-21T06:37:07;8.50;99.90
11583;DHT22;34299;50.820;4.548;2024-02-21T06:39:34;8.40;99.90
11583;DHT22;34299;50.820;4.548;2024-02-21T06:42:04;8.40;99.90
11583;DHT22;34299;50.820;4.548;2024-02-21T06:44:31;8.40;99.90
11583;DHT22;34299;50.820;4.548;2024-02-21T06:47:02;8.50;99.90
11583;DHT22;34299;50.820;4.548;2024-02-21T06:49:29;8.40;99.90
11583;DHT22;34299;50.820;4.548;2024-02-21T06:51:56;8.40;99.90
11583;DHT22;34299;50.820;4.548;2024-02-21T06:54:22;8.40;99.90
11583;DHT22;34299;50.820;4.548;2024-02-21T06:56:49;8.40;99.90
11583;DHT22;34299;50.820;4.548;2024-02-21T06:59:18;8.30;99.90
11583;DHT22;34299;50.820;4.548;2024-02-21T07:01:45;8.20;99.90
11583;DHT22;34299;50.820;4.548;2024-02-21T07:04:13;8.20;99.90
11583;DHT22;34299;50.820;4.548;2024-02-21T07:06:40;8.20;99.90
11583;DHT22;34299;50.820;4.548;2024-02-21T07:09:07;8.10;99.90
11583;DHT22;34299;50.820;4.548;2024-02-21T07:11:34;8.10;99.90
11583;DHT22;34299;50.820;4.548;2024-02-21T07:14:01;8.20;99.90
11583;DHT22;34299;50.820;4.548;2024-02-21T07:16:29;8.10;99.90
11583;DHT22;34299;50.820;4.548;2024-02-21T07:18:58;8.20;99.90
11583;DHT22;34299;50.820;4.548;2024-02-21T07:21:27;8.10;99.90
11583;DHT22;34299;50.820;4.548;2024-02-21T07:23:54;8.10;99.90
11583;DHT22;34299;50.820;4.548;2024-02-21T07:26:21;8.20;99.90
11583;DHT22;34299;50.820;4.548;2024-02-21T07:28:48;8.10;99.90
11583;DHT22;34299;50.820;4.548;2024-02-21T07:31:15;8.10;99.90
11583;DHT22;34299;50.820;4.548;2024-02-21T07:33:43;8.00;99.90
11583;DHT22;34299;50.820;4.548;2024-02-21T07:36:11;8.00;99.90
11583;DHT22;34299;50.820;4.548;2024-02-21T07:38:38;8.10;99.90
11583;DHT22;34299;50.820;4.548;2024-02-21T07:41:04;8.10;99.90
11583;DHT22;34299;50.820;4.548;2024-02-21T07:43:31;8.10;99.90
11583;DHT22;34299;50.820;4.548;2024-02-21T07:45:58;7.70;99.90
11583;DHT22;34299;50.820;4.548;2024-02-21T07:48:25;8.00;99.90
11583;DHT22;34299;50.820;4.548;2024-02-21T07:50:53;8.10;99.90
11583;DHT22;34299;50.820;4.548;2024-02-21T07:53:20;8.10;99.90
11583;DHT22;34299;50.820;4.548;2024-02-21T07:55:47;8.10;99.90
11583;DHT22;34299;50.820;4.548;2024-02-21T07:58:14;8.10;99.90
11583;DHT22;34299;50.820;4.548;2024-02-21T08:00:41;8.10;99.90
11583;DHT22;34299;50.820;4.548;2024-02-21T08:03:08;8.10;99.90
11583;DHT22;34299;50.820;4.548;2024-02-21T08:05:35;8.10;99.90
11583;DHT22;34299;50.820;4.548;2024-02-21T08:08:04;8.10;99.90
11583;DHT22;34299;50.820;4.548;2024-02-21T08:10:31;8.10;99.90
11583;DHT22;34299;50.820;4.548;2024-02-21T08:12:57;8.20;99.90
11583;DHT22;34299;50.820;4.548;2024-02-21T08:15:24;8.20;99.90
11583;DHT22;34299;50.820;4.548;2024-02-21T08:17:55;8.10;99.90
11583;DHT22;34299;50.820;4.548;2024-02-21T08:20:25;8.10;99.90
11583;DHT22;34299;50.820;4.548;2024-02-21T08:22:52;8.10;99.90
11583;DHT22;34299;50.820;4.548;2024-02-21T08:25:20;8.10;99.90
11583;DHT22;34299;50.820;4.548;2024-02-21T08:27:47;8.20;99.90
11583;DHT22;34299;50.820;4.548;2024-02-21T08:30:14;8.20;99.90
11583;DHT22;34299;50.820;4.548;2024-02-21T08:32:41;8.20;99.90
11583;DHT22;34299;50.820;4.548;2024-02-21T08:35:09;8.20;99.90
11583;DHT22;34299;50.820;4.548;2024-02-21T08:37:36;8.30;99.90
11583;DHT22;34299;50.820;4.548;2024-02-21T08:40:03;8.20;99.90
11583;DHT22;34299;50.820;4.548;2024-02-21T08:42:35;8.30;99.90
11583;DHT22;34299;50.820;4.548;2024-02-21T08:45:03;8.30;99.90
11583;DHT22;34299;50.820;4.548;2024-02-21T08:47:30;8.30;99.90
11583;DHT22;34299;50.820;4.548;2024-02-21T08:49:57;8.30;99.90
11583;DHT22;34299;50.820;4.548;2024-02-21T08:52:24;8.30;99.90
11583;DHT22;34299;50.820;4.548;2024-02-21T08:54:51;8.40;99.90
11583;DHT22;34299;50.820;4.548;2024-02-21T08:57:19;8.30;99.90
11583;DHT22;34299;50.820;4.548;2024-02-21T08:59:47;8.30;99.90
11583;DHT22;34299;50.820;4.548;2024-02-21T09:02:14;8.50;99.90
11583;DHT22;34299;50.820;4.548;2024-02-21T09:04:42;8.50;99.90
11583;DHT22;34299;50.820;4.548;2024-02-21T09:07:10;8.40;99.90
11583;DHT22;34299;50.820;4.548;2024-02-21T09:09:37;8.50;99.90
11583;DHT22;34299;50.820;4.548;2024-02-21T09:12:06;8.50;99.90
11583;DHT22;34299;50.820;4.548;2024-02-21T09:14:33;8.50;99.90
11583;DHT22;34299;50.820;4.548;2024-02-21T09:17:01;8.50;99.90
11583;DHT22;34299;50.820;4.548;2024-02-21T09:19:28;8.60;99.90
11583;DHT22;34299;50.820;4.548;2024-02-21T09:21:55;8.60;99.90
11583;DHT22;34299;50.820;4.548;2024-02-21T09:24:22;8.60;99.90
11583;DHT22;34299;50.820;4.548;2024-02-21T09:26:49;8.60;99.90
11583;DHT22;34299;50.820;4.548;2024-02-21T09:29:16;8.80;99.90
11583;DHT22;34299;50.820;4.548;2024-02-21T09:31:43;8.70;99.90
11583;DHT22;34299;50.820;4.548;2024-02-21T09:34:12;8.60;99.90
11583;DHT22;34299;50.820;4.548;2024-02-21T09:36:39;8.80;99.90
11583;DHT22;34299;50.820;4.548;2024-02-21T09:39:06;8.70;99.90
11583;DHT22;34299;50.820;4.548;2024-02-21T09:41:36;8.70;99.90
11583;DHT22;34299;50.820;4.548;2024-02-21T09:44:06;8.80;99.90
11583;DHT22;34299;50.820;4.548;2024-02-21T09:46:40;8.90;99.90
11583;DHT22;34299;50.820;4.548;2024-02-21T09:49:17;9.00;99.90
11583;DHT22;34299;50.820;4.548;2024-02-21T09:51:51;9.10;99.90
11583;DHT22;34299;50.820;4.548;2024-02-21T09:54:37;8.70;99.90
11583;DHT22;34299;50.820;4.548;2024-02-21T09:57:05;9.10;99.90
11583;DHT22;34299;50.820;4.548;2024-02-21T09:59:33;9.10;99.90
11583;DHT22;34299;50.820;4.548;2024-02-21T10:02:00;9.20;99.90
11583;DHT22;34299;50.820;4.548;2024-02-21T10:04:29;9.20;99.90
11583;DHT22;34299;50.820;4.548;2024-02-21T10:06:57;9.20;99.90
11583;DHT22;34299;50.820;4.548;2024-02-21T10:09:25;9.20;99.90
11583;DHT22;34299;50.820;4.548;2024-02-21T10:11:53;9.30;99.90
11583;DHT22;34299;50.820;4.548;2024-02-21T10:14:21;9.30;99.90
11583;DHT22;34299;50.820;4.548;2024-02-21T10:16:49;9.30;99.90
11583;DHT22;34299;50.820;4.548;2024-02-21T10:19:22;9.20;99.90
11583;DHT22;34299;50.820;4.548;2024-02-21T10:22:07;9.50;99.90
11583;DHT22;34299;50.820;4.548;2024-02-21T10:24:34;9.40;99.90
11583;DHT22;34299;50.820;4.548;2024-02-21T10:27:04;9.40;99.90
11583;DHT22;34299;50.820;4.548;2024-02-21T10:29:33;9.50;99.90
11583;DHT22;34299;50.820;4.548;2024-02-21T10:32:05;9.50;99.90
11583;DHT22;34299;50.820;4.548;2024-02-21T10:34:32;9.50;99.90
11583;DHT22;34299;50.820;4.548;2024-02-21T10:37:01;9.50;99.90
11583;DHT22;34299;50.820;4.548;2024-02-21T10:39:31;9.70;99.90
11583;DHT22;34299;50.820;4.548;2024-02-21T10:42:00;9.60;99.90
11583;DHT22;34299;50.820;4.548;2024-02-21T10:44:30;9.80;99.90
11583;DHT22;34299;50.820;4.548;2024-02-21T10:46:58;9.80;99.90
11583;DHT22;34299;50.820;4.548;2024-02-21T10:49:26;9.80;99.90
11583;DHT22;34299;50.820;4.548;2024-02-21T10:51:55;9.80;99.90
11583;DHT22;34299;50.820;4.548;2024-02-21T10:54:44;9.90;99.90
11583;DHT22;34299;50.820;4.548;2024-02-21T10:57:13;9.80;99.90
11583;DHT22;34299;50.820;4.548;2024-02-21T10:59:40;9.60;99.90
11583;DHT22;34299;50.820;4.548;2024-02-21T11:02:07;10.10;99.90
11583;DHT22;34299;50.820;4.548;2024-02-21T11:04:35;10.00;99.90
11583;DHT22;34299;50.820;4.548;2024-02-21T11:07:03;9.90;99.90
11583;DHT22;34299;50.820;4.548;2024-02-21T11:09:33;10.00;99.90
11583;DHT22;34299;50.820;4.548;2024-02-21T11:12:02;10.20;99.90
11583;DHT22;34299;50.820;4.548;2024-02-21T11:14:30;10.30;99.90
11583;DHT22;34299;50.820;4.548;2024-02-21T11:17:01;10.20;99.90
11583;DHT22;34299;50.820;4.548;2024-02-21T11:19:29;9.80;99.90
11583;DHT22;34299;50.820;4.548;2024-02-21T11:21:57;10.20;99.90
11583;DHT22;34299;50.820;4.548;2024-02-21T11:24:27;10.10;99.90
11583;DHT22;34299;50.820;4.548;2024-02-21T11:26:56;10.00;99.90
11583;DHT22;34299;50.820;4.548;2024-02-21T11:29:24;10.00;99.90
11583;DHT22;34299;50.820;4.548;2024-02-21T11:31:51;9.80;99.90
11583;DHT22;34299;50.820;4.548;2024-02-21T11:34:19;10.10;99.90
11583;DHT22;34299;50.820;4.548;2024-02-21T11:36:47;10.30;99.90
11583;DHT22;34299;50.820;4.548;2024-02-21T11:39:19;10.20;99.90
11583;DHT22;34299;50.820;4.548;2024-02-21T11:41:47;10.10;99.90
11583;DHT22;34299;50.820;4.548;2024-02-21T11:44:15;10.10;99.90
11583;DHT22;34299;50.820;4.548;2024-02-21T11:46:42;10.00;99.90
11583;DHT22;34299;50.820;4.548;2024-02-21T11:49:10;10.00;99.90
11583;DHT22;34299;50.820;4.548;2024-02-21T11:51:37;10.00;99.90
11583;DHT22;34299;50.820;4.548;2024-02-21T11:54:04;10.00;99.90
11583;DHT22;34299;50.820;4.548;2024-02-21T11:56:32;10.10;99.90
11583;DHT22;34299;50.820;4.548;2024-02-21T11:58:59;10.10;99.90
11583;DHT22;34299;50.820;4.548;2024-02-21T12:01:28;10.20;99.90
11583;DHT22;34299;50.820;4.548;2024-02-21T12:03:55;9.90;99.90
11583;DHT22;34299;50.820;4.548;2024-02-21T12:06:22;10.00;99.90
11583;DHT22;34299;50.820;4.548;2024-02-21T12:08:49;9.90;99.90
11583;DHT22;34299;50.820;4.548;2024-02-21T12:11:20;10.00;99.90
11583;DHT22;34299;50.820;4.548;2024-02-21T12:13:48;10.00;99.90
11583;DHT22;34299;50.820;4.548;2024-02-21T12:16:24;10.00;99.90
11583;DHT22;34299;50.820;4.548;2024-02-21T12:18:54;10.00;99.90
11583;DHT22;34299;50.820;4.548;2024-02-21T12:21:24;10.00;99.90
11583;DHT22;34299;50.820;4.548;2024-02-21T12:23:51;10.10;99.90
11583;DHT22;34299;50.820;4.548;2024-02-21T12:26:18;10.10;99.90
11583;DHT22;34299;50.820;4.548;2024-02-21T12:28:45;10.00;99.90
11583;DHT22;34299;50.820;4.548;2024-02-21T12:31:12;10.10;99.90
11583;DHT22;34299;50.820;4.548;2024-02-21T12:33:39;10.20;99.90
11583;DHT22;34299;50.820;4.548;2024-02-21T12:36:08;10.10;99.90
11583;DHT22;34299;50.820;4.548;2024-02-21T12:38:35;10.20;99.90
11583;DHT22;34299;50.820;4.548;2024-02-21T12:41:02;10.30;99.90
11583;DHT22;34299;50.820;4.548;2024-02-21T12:43:29;10.20;99.90
11583;DHT22;34299;50.820;4.548;2024-02-21T12:45:56;10.10;99.90
11583;DHT22;34299;50.820;4.548;2024-02-21T12:48:23;10.20;99.90
11583;DHT22;34299;50.820;4.548;2024-02-21T12:50:50;10.20;99.90
11583;DHT22;34299;50.820;4.548;2024-02-21T12:53:19;10.30;99.90
11583;DHT22;34299;50.820;4.548;2024-02-21T12:55:48;10.20;99.90
11583;DHT22;34299;50.820;4.548;2024-02-21T12:58:15;10.10;99.90
11583;DHT22;34299;50.820;4.548;2024-02-21T13:00:42;10.20;99.90
11583;DHT22;34299;50.820;4.548;2024-02-21T13:03:10;10.10;99.90
11583;DHT22;34299;50.820;4.548;2024-02-21T13:05:38;10.20;99.90
11583;DHT22;34299;50.820;4.548;2024-02-21T13:08:05;10.30;99.90
11583;DHT22;34299;50.820;4.548;2024-02-21T13:10:33;10.30;99.90
11583;DHT22;34299;50.820;4.548;2024-02-21T13:13:01;10.20;99.90
11583;DHT22;34299;50.820;4.548;2024-02-21T13:15:28;10.10;99.90
11583;DHT22;34299;50.820;4.548;2024-02-21T13:17:56;10.30;99.90
11583;DHT22;34299;50.820;4.548;2024-02-21T13:20:23;10.30;99.90
11583;DHT22;34299;50.820;4.548;2024-02-21T13:22:50;10.20;99.90
11583;DHT22;34299;50.820;4.548;2024-02-21T13:25:17;10.30;99.90
11583;DHT22;34299;50.820;4.548;2024-02-21T13:27:48;10.10;99.90
11583;DHT22;34299;50.820;4.548;2024-02-21T13:30:15;10.10;99.90
11583;DHT22;34299;50.820;4.548;2024-02-21T13:32:43;10.10;99.90
11583;DHT22;34299;50.820;4.548;2024-02-21T13:35:11;10.10;99.90
11583;DHT22;34299;50.820;4.548;2024-02-21T13:37:39;10.10;99.90
11583;DHT22;34299;50.820;4.548;2024-02-21T13:40:07;10.20;99.90
11583;DHT22;34299;50.820;4.548;2024-02-21T13:42:35;10.10;99.90
11583;DHT22;34299;50.820;4.548;2024-02-21T13:45:05;10.10;99.90
11583;DHT22;34299;50.820;4.548;2024-02-21T13:47:32;10.10;99.90
11583;DHT22;34299;50.820;4.548;2024-02-21T13:49:59;10.10;99.90
11583;DHT22;34299;50.820;4.548;2024-02-21T13:52:26;10.10;99.90
11583;DHT22;34299;50.820;4.548;2024-02-21T13:54:53;10.00;99.90
11583;DHT22;34299;50.820;4.548;2024-02-21T13:57:20;10.00;99.90
11583;DHT22;34299;50.820;4.548;2024-02-21T13:59:47;10.00;99.90
11583;DHT22;34299;50.820;4.548;2024-02-21T14:02:15;9.70;99.90
11583;DHT22;34299;50.820;4.548;2024-02-21T14:04:42;9.90;99.90
11583;DHT22;34299;50.820;4.548;2024-02-21T14:07:09;9.90;99.90
11583;DHT22;34299;50.820;4.548;2024-02-21T14:09:36;10.00;99.90
11583;DHT22;34299;50.820;4.548;2024-02-21T14:12:03;9.90;99.90
11583;DHT22;34299;50.820;4.548;2024-02-21T14:14:34;9.80;99.90
11583;DHT22;34299;50.820;4.548;2024-02-21T14:17:01;9.80;99.90
11583;DHT22;34299;50.820;4.548;2024-02-21T14:19:30;9.70;99.90
11583;DHT22;34299;50.820;4.548;2024-02-21T14:21:57;9.80;99.90
11583;DHT22;34299;50.820;4.548;2024-02-21T14:24:24;9.80;99.90
11583;DHT22;34299;50.820;4.548;2024-02-21T14:26:53;9.60;99.90
11583;DHT22;34299;50.820;4.548;2024-02-21T14:29:20;9.70;99.90
11583;DHT22;34299;50.820;4.548;2024-02-21T14:31:47;9.60;99.90
11583;DHT22;34299;50.820;4.548;2024-02-21T14:34:14;9.60;99.90
11583;DHT22;34299;50.820;4.548;2024-02-21T14:36:42;9.50;99.90
11583;DHT22;34299;50.820;4.548;2024-02-21T14:39:09;9.50;99.90
11583;DHT22;34299;50.820;4.548;2024-02-21T14:41:36;9.50;99.90
11583;DHT22;34299;50.820;4.548;2024-02-21T14:44:05;9.50;99.90
11583;DHT22;34299;50.820;4.548;2024-02-21T14:46:36;9.40;99.90
11583;DHT22;34299;50.820;4.548;2024-02-21T14:49:04;9.30;99.90
11583;DHT22;34299;50.820;4.548;2024-02-21T14:51:31;9.30;99.90
11583;DHT22;34299;50.820;4.548;2024-02-21T14:54:00;9.30;99.90
11583;DHT22;34299;50.820;4.548;2024-02-21T14:56:27;9.00;99.90
11583;DHT22;34299;50.820;4.548;2024-02-21T14:58:54;9.30;99.90
11583;DHT22;34299;50.820;4.548;2024-02-21T15:01:21;9.20;99.90
11583;DHT22;34299;50.820;4.548;2024-02-21T15:03:48;9.20;99.90
11583;DHT22;34299;50.820;4.548;2024-02-21T15:06:15;9.20;99.90
11583;DHT22;34299;50.820;4.548;2024-02-21T15:08:42;9.10;99.90
11583;DHT22;34299;50.820;4.548;2024-02-21T15:11:10;9.30;99.90
11583;DHT22;34299;50.820;4.548;2024-02-21T15:13:37;9.10;99.90
11583;DHT22;34299;50.820;4.548;2024-02-21T15:16:05;9.10;99.90
11583;DHT22;34299;50.820;4.548;2024-02-21T15:18:32;9.10;99.90
11583;DHT22;34299;50.820;4.548;2024-02-21T15:21:01;9.10;99.90
11583;DHT22;34299;50.820;4.548;2024-02-21T15:23:28;9.10;99.90
11583;DHT22;34299;50.820;4.548;2024-02-21T15:25:55;9.10;99.90
11583;DHT22;34299;50.820;4.548;2024-02-21T15:28:23;9.00;99.90
11583;DHT22;34299;50.820;4.548;2024-02-21T15:30:50;9.10;99.90
11583;DHT22;34299;50.820;4.548;2024-02-21T15:33:17;9.00;99.90
11583;DHT22;34299;50.820;4.548;2024-02-21T15:35:45;9.00;99.90
11583;DHT22;34299;50.820;4.548;2024-02-21T15:38:12;9.00;99.90
11583;DHT22;34299;50.820;4.548;2024-02-21T15:40:39;8.90;99.90
11583;DHT22;34299;50.820;4.548;2024-02-21T15:43:06;8.90;99.90
11583;DHT22;34299;50.820;4.548;2024-02-21T15:45:35;9.00;99.90